Time;durP1;ratioP1;P1;durP2;ratioP2;P2;SDS_P1;SDS_P2;PMS_P1;PMS_P2;Temp;Humidity;BMP_temperature;BMP_pressure;BME280_temperature;BME280_humidity;BME280_pressure;Samples;Min_cycle;Max_cycle;Signal;HPM_P1;HPM_P2
2022/04/25 00:00:57;;;;;;;;;;;;;;;7.01;100.00;98956.84;5101685;28;19921;-77
2022/04/25 00:03:23;;;;;;;;;;;;;;;6.96;100.00;98940.19;5090542;28;19916;-76
2022/04/25 00:05:48;;;;;;;;;;;;;;;6.91;100.00;98928.72;5076436;28;19935;-77
2022/04/25 00:08:13;;;;;;;;;;;;;;;6.84;100.00;98916.41;5087631;28;19920;-75
2022/04/25 00:10:39;;;;;;;;;;;;;;;6.79;100.00;98907.56;5076613;28;19923;-78
2022/04/25 00:13:06;;;;;;;;;;;;;;;6.79;100.00;98890.16;5086938;28;20330;-77
2022/04/25 00:15:31;;;;;;;;;;;;;;;6.74;100.00;98870.88;5090641;28;19928;-75
2022/04/25 00:17:56;;;;;;;;;;;;;;;6.75;100.00;98866.50;5106316;28;19920;-75
2022/04/25 00:20:22;;;;;;;;;;;;;;;6.71;100.00;98851.59;5075943;28;20013;-77
2022/04/25 00:22:47;;;;;;;;;;;;;;;6.69;100.00;98843.72;5088280;28;19921;-76
2022/04/25 00:25:13;;;;;;;;;;;;;;;6.68;100.00;98821.06;5085896;28;19950;-77
2022/04/25 00:27:39;;;;;;;;;;;;;;;6.64;100.00;98814.88;5073759;28;19927;-75
2022/04/25 00:30:05;;;;;;;;;;;;;;;6.64;100.00;98803.53;5089739;28;20512;-75
2022/04/25 00:32:30;;;;;;;;;;;;;;;6.62;100.00;98793.03;5072699;28;19921;-78
2022/04/25 00:34:55;;;;;;;;;;;;;;;6.61;100.00;98785.16;5069142;28;19924;-75
2022/04/25 00:37:21;;;;;;;;;;;;;;;6.59;100.00;98781.66;5080110;28;20471;-76
2022/04/25 00:39:46;;;;;;;;;;;;;;;6.62;100.00;98766.03;5076431;28;20011;-75
2022/04/25 00:42:11;;;;;;;;;;;;;;;6.57;100.00;98765.03;5086114;28;20380;-77
2022/04/25 00:44:41;;;;;;;;;;;;;;;6.55;100.00;98761.50;5085350;28;19917;-74
2022/04/25 00:47:08;;;;;;;;;;;;;;;6.53;100.00;98745.78;5070108;28;19936;-75
2022/04/25 00:49:33;;;;;;;;;;;;;;;6.52;100.00;98743.16;5074010;28;19920;-74
2022/04/25 00:51:59;;;;;;;;;;;;;;;6.51;100.00;98738.75;5077667;28;19920;-74
2022/04/25 00:54:24;;;;;;;;;;;;;;;6.50;100.00;98732.66;5070892;28;20003;-75
2022/04/25 00:56:50;;;;;;;;;;;;;;;6.53;100.00;98729.25;5082619;28;20326;-75
2022/04/25 00:59:16;;;;;;;;;;;;;;;6.54;100.00;98715.28;5069092;28;20206;-74
2022/04/25 01:01:42;;;;;;;;;;;;;;;6.56;100.00;98700.53;5070004;28;19970;-75
2022/04/25 01:04:08;;;;;;;;;;;;;;;6.64;100.00;98699.78;5068680;28;19920;-74
2022/04/25 01:06:33;;;;;;;;;;;;;;;6.68;100.00;98695.50;5069806;28;20265;-74
2022/04/25 01:08:58;;;;;;;;;;;;;;;6.65;100.00;98693.72;5085095;28;19923;-75
2022/04/25 01:11:24;;;;;;;;;;;;;;;6.63;100.00;98691.91;5069530;28;19947;-75
2022/04/25 01:13:50;;;;;;;;;;;;;;;6.65;100.00;98690.22;5072536;28;19923;-75
2022/04/25 01:16:15;;;;;;;;;;;;;;;6.67;100.00;98685.91;5075153;28;20360;-76
2022/04/25 01:18:40;;;;;;;;;;;;;;;6.71;100.00;98685.09;5073536;28;19920;-76
2022/04/25 01:21:08;;;;;;;;;;;;;;;6.74;100.00;98682.53;5073603;28;20451;-75
2022/04/25 01:29:02;;;;;;;;;;;;;;;6.89;100.00;98668.81;5095554;28;19926;-75
2022/04/25 01:31:27;;;;;;;;;;;;;;;6.91;100.00;98674.06;5093278;28;20263;-77
2022/04/25 01:33:53;;;;;;;;;;;;;;;6.93;100.00;98677.56;5096444;28;20459;-75
2022/04/25 01:36:22;;;;;;;;;;;;;;;6.89;100.00;98675.78;5079794;28;19964;-75
2022/04/25 01:38:47;;;;;;;;;;;;;;;6.83;100.00;98682.66;5119465;27;19915;-77
2022/04/25 01:41:13;;;;;;;;;;;;;;;6.81;100.00;98686.13;5115652;27;20324;-76
2022/04/25 01:43:44;;;;;;;;;;;;;;;6.85;100.00;98684.44;5093468;28;19981;-78
2022/04/25 01:46:10;;;;;;;;;;;;;;;6.82;100.00;98688.78;5092736;28;19912;-77
2022/04/25 01:48:36;;;;;;;;;;;;;;;6.82;100.00;98691.38;5098306;28;20012;-77
2022/04/25 01:51:01;;;;;;;;;;;;;;;6.89;100.00;98688.88;5099021;28;19919;-76
2022/04/25 01:53:27;;;;;;;;;;;;;;;6.91;100.00;98690.63;5113460;28;20376;-77
2022/04/25 01:55:52;;;;;;;;;;;;;;;6.95;100.00;98697.69;5116997;27;19924;-77
2022/04/25 01:58:19;;;;;;;;;;;;;;;6.98;100.00;98691.63;5091748;27;19919;-77
2022/04/25 02:00:46;;;;;;;;;;;;;;;6.94;100.00;98701.16;5108225;28;19952;-77
2022/04/25 02:03:12;;;;;;;;;;;;;;;6.98;100.00;98705.59;5111450;27;19915;-77
2022/04/25 02:05:37;;;;;;;;;;;;;;;6.95;100.00;98712.50;5092646;28;19945;-79
2022/04/25 02:08:03;;;;;;;;;;;;;;;6.94;100.00;98722.06;5106698;28;19920;-77
2022/04/25 02:10:28;;;;;;;;;;;;;;;6.97;100.00;98719.50;5108736;28;20026;-77
2022/04/25 02:12:57;;;;;;;;;;;;;;;6.97;100.00;98721.25;5098145;28;19937;-77
2022/04/25 02:15:23;;;;;;;;;;;;;;;7.00;100.00;98718.69;5096306;28;19923;-77
2022/04/25 02:17:48;;;;;;;;;;;;;;;7.07;100.00;98722.28;5096879;28;20356;-77
2022/04/25 02:20:13;;;;;;;;;;;;;;;7.11;100.00;98721.47;5078249;28;19942;-77
2022/04/25 02:22:39;;;;;;;;;;;;;;;7.08;100.00;98721.44;5107343;28;19993;-77
2022/04/25 02:25:05;;;;;;;;;;;;;;;6.99;100.00;98737.84;5094765;28;20345;-77
2022/04/25 02:27:30;;;;;;;;;;;;;;;6.99;100.00;98740.47;5093455;28;19928;-77
2022/04/25 02:29:59;;;;;;;;;;;;;;;6.93;100.00;98746.50;5093493;28;19920;-78
2022/04/25 02:32:25;;;;;;;;;;;;;;;6.95;100.00;98741.28;5094052;28;19920;-77
2022/04/25 02:34:52;;;;;;;;;;;;;;;6.99;100.00;98753.56;5092594;28;20395;-78
2022/04/25 02:37:18;;;;;;;;;;;;;;;6.94;100.00;98753.47;5076529;28;19916;-75
2022/04/25 02:39:44;;;;;;;;;;;;;;;7.00;100.00;98747.47;5114094;28;19916;-78
2022/04/25 02:42:09;;;;;;;;;;;;;;;7.05;100.00;98751.03;5083384;28;19969;-78
2022/04/25 02:44:35;;;;;;;;;;;;;;;7.08;100.00;98745.84;5082845;28;19924;-75
2022/04/25 02:47:01;;;;;;;;;;;;;;;7.12;100.00;98752.91;5072904;28;19921;-78
2022/04/25 02:49:26;;;;;;;;;;;;;;;7.16;100.00;98754.75;5073132;28;20015;-78
2022/04/25 02:51:51;;;;;;;;;;;;;;;7.21;100.00;98756.53;5067638;28;19924;-77
2022/04/25 02:54:19;;;;;;;;;;;;;;;7.26;100.00;98761.00;5106070;28;19963;-78
2022/04/25 02:56:45;;;;;;;;;;;;;;;7.32;100.00;98768.94;5093290;28;20434;-77
2022/04/25 02:59:10;;;;;;;;;;;;;;;7.35;100.00;98773.34;5092375;28;20019;-78
2022/04/25 03:01:35;;;;;;;;;;;;;;;7.36;100.00;98785.56;5074060;28;20402;-76
2022/04/25 03:04:02;;;;;;;;;;;;;;;7.36;100.00;98794.31;5074951;28;20010;-76
2022/04/25 03:06:27;;;;;;;;;;;;;;;7.37;100.00;98789.97;5094164;28;19916;-76
2022/04/25 03:08:53;;;;;;;;;;;;;;;7.41;100.00;98798.72;5091485;28;20314;-77
2022/04/25 03:11:18;;;;;;;;;;;;;;;7.47;100.00;98797.13;5091696;28;19969;-74
2022/04/25 03:13:45;;;;;;;;;;;;;;;7.44;100.00;98797.06;5092076;28;19916;-76
2022/04/25 03:16:13;;;;;;;;;;;;;;;7.48;100.00;98806.72;5091147;28;19920;-77
2022/04/25 03:18:38;;;;;;;;;;;;;;;7.48;100.00;98805.84;5092495;28;19920;-77
2022/04/25 03:21:04;;;;;;;;;;;;;;;7.52;100.00;98805.03;5092012;28;19945;-77
2022/04/25 03:23:29;;;;;;;;;;;;;;;7.42;100.00;98814.47;5097641;28;19919;-75
2022/04/25 03:25:54;;;;;;;;;;;;;;;7.53;100.00;98823.38;5110500;28;19924;-76
2022/04/25 03:28:20;;;;;;;;;;;;;;;7.48;100.00;98821.56;5093118;28;19916;-74
2022/04/25 03:30:46;;;;;;;;;;;;;;;7.46;100.00;98829.38;5075734;28;19928;-78
2022/04/25 03:33:13;;;;;;;;;;;;;;;7.46;100.00;98824.16;5075028;28;20281;-76
2022/04/25 03:35:41;;;;;;;;;;;;;;;7.41;100.00;98831.06;5091908;28;19916;-76
2022/04/25 03:38:07;;;;;;;;;;;;;;;7.34;100.00;98832.69;5092847;28;20009;-77
2022/04/25 03:40:35;;;;;;;;;;;;;;;7.32;100.00;98828.28;5093645;28;20394;-76
2022/04/25 03:43:03;;;;;;;;;;;;;;;7.29;100.00;98817.75;5096398;28;19988;-77
2022/04/25 03:45:29;;;;;;;;;;;;;;;7.31;100.00;98816.03;5082855;28;20026;-78
2022/04/25 03:47:54;;;;;;;;;;;;;;;7.28;100.00;98809.00;5086048;28;19920;-76
2022/04/25 03:50:19;;;;;;;;;;;;;;;7.35;100.00;98799.53;5073355;28;19966;-76
2022/04/25 03:52:45;;;;;;;;;;;;;;;7.34;100.00;98795.16;5071613;28;19920;-76
2022/04/25 03:57:55;;;;;;;;;;;;;;;7.34;100.00;98809.09;5091853;28;19927;-77
2022/04/25 04:00:21;;;;;;;;;;;;;;;7.34;100.00;98823.94;5091350;28;19924;-78
2022/04/25 04:02:47;;;;;;;;;;;;;;;7.23;100.00;98828.13;5090184;28;20360;-75
2022/04/25 04:05:13;;;;;;;;;;;;;;;7.15;100.00;98841.09;5081547;28;19973;-76
2022/04/25 04:07:38;;;;;;;;;;;;;;;7.03;100.00;98831.28;5083942;28;19927;-79
2022/04/25 04:10:03;;;;;;;;;;;;;;;6.95;100.00;98812.81;5091543;28;20280;-75
2022/04/25 04:12:33;;;;;;;;;;;;;;;6.90;100.00;98800.50;5090348;28;19973;-80
2022/04/25 04:15:02;;;;;;;;;;;;;;;6.89;100.00;98785.66;5091425;28;19916;-81
2022/04/25 04:17:28;;;;;;;;;;;;;;;6.84;100.00;98769.91;5091831;28;19978;-79
2022/04/25 04:19:54;;;;;;;;;;;;;;;6.82;100.00;98756.78;5094160;28;19930;-80
2022/04/25 04:22:23;;;;;;;;;;;;;;;6.77;100.00;98745.34;5103019;28;19923;-79
2022/04/25 04:24:49;;;;;;;;;;;;;;;6.76;100.00;98730.53;5078745;28;19916;-80
2022/04/25 04:27:14;;;;;;;;;;;;;;;6.72;100.00;98717.38;5089082;28;19928;-79
2022/04/25 04:29:43;;;;;;;;;;;;;;;6.81;100.00;98691.34;5085941;28;19919;-79
2022/04/25 04:32:09;;;;;;;;;;;;;;;6.79;100.00;98678.25;5094721;28;20295;-80
2022/04/25 04:34:35;;;;;;;;;;;;;;;6.80;100.00;98666.91;5089438;28;19920;-79
2022/04/25 04:37:01;;;;;;;;;;;;;;;6.90;100.00;98648.75;5078020;28;20345;-80
2022/04/25 04:39:26;;;;;;;;;;;;;;;6.88;100.00;98634.78;5091403;28;19969;-81
2022/04/25 04:41:51;;;;;;;;;;;;;;;6.88;100.00;98629.53;5110386;28;20440;-79
2022/04/25 04:44:18;;;;;;;;;;;;;;;6.90;100.00;98601.66;5094071;28;19926;-80
2022/04/25 04:46:43;;;;;;;;;;;;;;;6.95;100.00;98590.41;5088050;28;19946;-80
2022/04/25 04:49:08;;;;;;;;;;;;;;;7.00;100.00;98566.91;5079080;28;19942;-80
2022/04/25 04:51:33;;;;;;;;;;;;;;;7.12;100.00;98538.31;5084990;28;20379;-81
2022/04/25 04:53:59;;;;;;;;;;;;;;;7.16;100.00;98529.63;5108799;28;20014;-80
2022/04/25 04:56:28;;;;;;;;;;;;;;;7.17;100.00;98520.91;5094536;27;19923;-81
2022/04/25 04:58:53;;;;;;;;;;;;;;;7.19;100.00;98505.22;5089773;28;19920;-80
2022/04/25 05:01:19;;;;;;;;;;;;;;;7.22;100.00;98491.31;5110547;28;20030;-79
2022/04/25 05:03:47;;;;;;;;;;;;;;;7.33;100.00;98474.88;5087435;28;19920;-78
2022/04/25 05:06:14;;;;;;;;;;;;;;;7.45;100.00;98461.00;5098125;28;20283;-80
2022/04/25 05:08:39;;;;;;;;;;;;;;;7.60;100.00;98439.34;5086187;28;19928;-78
2022/04/25 05:11:07;;;;;;;;;;;;;;;7.71;100.00;98434.19;5079223;28;19979;-80
2022/04/25 05:13:32;;;;;;;;;;;;;;;7.73;100.00;98433.31;5068280;27;19927;-78
2022/04/25 05:15:58;;;;;;;;;;;;;;;7.82;100.00;98432.53;5096053;28;20317;-77
2022/04/25 05:18:24;;;;;;;;;;;;;;;7.87;100.00;98433.44;5094646;28;20367;-79
2022/04/25 05:20:49;;;;;;;;;;;;;;;7.95;100.00;98443.13;5078980;28;20376;-79
2022/04/25 05:23:19;;;;;;;;;;;;;;;7.93;100.00;98460.59;5109030;28;19923;-79
2022/04/25 05:25:44;;;;;;;;;;;;;;;7.95;100.00;98479.81;5078024;28;19920;-73
2022/04/25 05:28:09;;;;;;;;;;;;;;;8.05;100.00;98498.25;5109803;28;20317;-74
2022/04/25 05:30:35;;;;;;;;;;;;;;;8.10;100.00;98521.88;5114681;27;20436;-74
2022/04/25 05:33:04;;;;;;;;;;;;;;;8.23;100.00;98539.47;5096173;28;19927;-74
2022/04/25 05:35:30;;;;;;;;;;;;;;;8.17;100.00;98569.97;5093462;28;19942;-74
2022/04/25 05:37:56;;;;;;;;;;;;;;;8.16;100.00;98592.72;5096104;28;19920;-74
2022/04/25 05:40:22;;;;;;;;;;;;;;;8.23;100.00;98605.03;5091111;28;20363;-74
2022/04/25 05:42:48;;;;;;;;;;;;;;;8.23;100.00;98626.00;5075500;28;19920;-75
2022/04/25 05:45:14;;;;;;;;;;;;;;;8.25;100.00;98639.13;5083857;28;20509;-74
2022/04/25 05:47:42;;;;;;;;;;;;;;;8.28;100.00;98652.22;5102675;28;20268;-73
2022/04/25 05:52:55;;;;;;;;;;;;;;;8.26;100.00;98682.81;5120687;27;20291;-75
2022/04/25 05:55:21;;;;;;;;;;;;;;;8.33;100.00;98704.72;5104261;27;20014;-74
2022/04/25 05:57:46;;;;;;;;;;;;;;;8.26;100.00;98720.41;5100709;28;20061;-76
2022/04/25 06:00:14;;;;;;;;;;;;;;;8.26;100.00;98723.03;5082126;28;19920;-77
2022/04/25 06:02:40;;;;;;;;;;;;;;;8.34;100.00;98727.47;5093517;28;19961;-74
2022/04/25 06:05:06;;;;;;;;;;;;;;;8.31;100.00;98738.78;5088260;28;19927;-74
2022/04/25 06:07:32;;;;;;;;;;;;;;;8.23;100.00;98757.09;5094905;28;19919;-75
2022/04/25 06:09:57;;;;;;;;;;;;;;;8.14;100.00;98764.84;5102349;28;19911;-75
2022/04/25 06:12:23;;;;;;;;;;;;;;;8.16;100.00;98768.34;5113560;28;19951;-76
2022/04/25 06:14:48;;;;;;;;;;;;;;;8.14;100.00;98777.97;5084698;28;19927;-74
2022/04/25 06:17:15;;;;;;;;;;;;;;;8.04;100.00;98789.16;5096260;28;19920;-74
2022/04/25 06:19:40;;;;;;;;;;;;;;;8.09;100.00;98792.72;5095430;28;19935;-77
2022/04/25 06:22:05;;;;;;;;;;;;;;;8.06;100.00;98793.59;5093598;28;19923;-75
2022/04/25 06:24:31;;;;;;;;;;;;;;;8.11;100.00;98796.25;5093286;28;19923;-75
2022/04/25 06:26:57;;;;;;;;;;;;;;;8.10;100.00;98807.59;5093528;28;19920;-75
2022/04/25 06:29:24;;;;;;;;;;;;;;;8.17;100.00;98813.78;5096184;28;19978;-75
2022/04/25 06:31:49;;;;;;;;;;;;;;;8.12;100.00;98818.97;5094743;28;19943;-76
2022/04/25 06:34:15;;;;;;;;;;;;;;;8.35;100.00;98798.28;5095213;28;20315;-78
2022/04/25 06:36:41;;;;;;;;;;;;;;;8.33;100.00;98807.91;5113670;28;19923;-75
2022/04/25 06:39:07;;;;;;;;;;;;;;;8.29;100.00;98815.72;5092290;28;19928;-76
2022/04/25 06:41:33;;;;;;;;;;;;;;;8.24;100.00;98837.50;5086923;28;19931;-76
2022/04/25 06:43:59;;;;;;;;;;;;;;;8.17;100.00;98851.41;5095377;28;19923;-78
2022/04/25 06:46:28;;;;;;;;;;;;;;;8.09;100.00;98859.16;5095527;28;19923;-76
2022/04/25 06:49:27;;;;;;;;;;;;;;;8.02;100.00;98877.41;5095174;28;19927;-75
2022/04/25 06:51:44;;;;;;;;;;;;;;;8.02;100.00;98864.28;5112074;28;19915;-75
2022/04/25 06:54:13;;;;;;;;;;;;;;;8.01;100.00;98873.00;5094126;28;20382;-79
2022/04/25 06:56:39;;;;;;;;;;;;;;;7.99;100.00;98885.22;5079294;28;19927;-79
2022/04/25 06:59:04;;;;;;;;;;;;;;;7.81;100.00;98897.16;5096041;28;19920;-77
2022/04/25 07:01:29;;;;;;;;;;;;;;;7.85;100.00;98888.50;5096138;28;19916;-79
2022/04/25 07:03:56;;;;;;;;;;;;;;;7.86;100.00;98882.41;5096152;28;19955;-76
2022/04/25 07:06:22;;;;;;;;;;;;;;;7.97;100.00;98877.34;5097453;28;19916;-80
2022/04/25 07:08:48;;;;;;;;;;;;;;;8.03;100.00;98869.56;5095587;28;19927;-78
2022/04/25 07:11:14;;;;;;;;;;;;;;;7.96;100.00;98867.69;5095807;28;19920;-76
2022/04/25 07:13:42;;;;;;;;;;;;;;;7.95;100.00;98862.44;5095015;28;20421;-78
2022/04/25 07:16:07;;;;;;;;;;;;;;;7.94;100.00;98858.03;5096381;28;20002;-80
2022/04/25 07:18:33;;;;;;;;;;;;;;;7.92;100.00;98844.91;5094683;28;20008;-79
2022/04/25 07:20:58;;;;;;;;;;;;;;;7.91;100.00;98843.16;5095808;28;19915;-78
2022/04/25 07:28:53;;;;;;;;;;;;;;;7.79;100.00;98786.22;5112553;28;19922;-75
2022/04/25 07:31:21;;;;;;;;;;;;;;;7.74;100.00;98772.19;5101092;28;19916;-76
2022/04/25 07:33:47;;;;;;;;;;;;;;;7.64;100.00;98760.66;5074753;28;20354;-76
2022/04/25 07:36:14;;;;;;;;;;;;;;;7.60;100.00;98730.06;5074880;28;19963;-77
2022/04/25 07:38:40;;;;;;;;;;;;;;;7.77;100.00;98698.88;5085755;28;19926;-77
2022/04/25 07:41:07;;;;;;;;;;;;;;;7.81;100.00;98681.44;5100862;27;20189;-75
2022/04/25 07:43:34;;;;;;;;;;;;;;;8.08;100.00;98647.69;5100369;27;20020;-75
2022/04/25 07:46:00;;;;;;;;;;;;;;;8.50;100.00;98608.78;5078969;27;19984;-73
2022/04/25 07:48:25;;;;;;;;;;;;;;;9.21;100.00;98564.59;5111878;28;19923;-74
2022/04/25 07:50:51;;;;;;;;;;;;;;;9.21;100.00;98583.00;5073208;28;20352;-74
2022/04/25 07:53:16;;;;;;;;;;;;;;;8.77;100.00;98636.09;5092193;28;19920;-75
2022/04/25 07:55:42;;;;;;;;;;;;;;;8.58;100.00;98664.81;5079129;28;20537;-74
2022/04/25 07:58:08;;;;;;;;;;;;;;;8.53;100.00;98670.88;5079040;28;20338;-75
2022/04/25 08:00:33;;;;;;;;;;;;;;;8.39;100.00;98683.81;5079054;28;19927;-75
2022/04/25 08:03:01;;;;;;;;;;;;;;;8.24;100.00;98706.38;5079157;28;19961;-75
2022/04/25 08:05:26;;;;;;;;;;;;;;;8.14;100.00;98698.41;5086622;28;19926;-74
2022/04/25 08:07:51;;;;;;;;;;;;;;;8.07;100.00;98702.72;5092934;28;19920;-73
2022/04/25 08:10:17;;;;;;;;;;;;;;;7.87;100.00;98705.09;5076351;28;20007;-74
2022/04/25 08:18:12;;;;;;;;;;;;;;;7.73;100.00;98681.34;5094326;28;19926;-76
2022/04/25 08:20:39;;;;;;;;;;;;;;;7.67;100.00;98686.50;5101995;28;19920;-75
2022/04/25 08:23:05;;;;;;;;;;;;;;;7.65;100.00;98683.84;5086419;28;20276;-76
2022/04/25 08:25:31;;;;;;;;;;;;;;;7.65;100.00;98665.50;5110000;28;19926;-74
2022/04/25 08:27:59;;;;;;;;;;;;;;;7.73;100.00;98649.91;5091966;28;20007;-77
2022/04/25 08:30:24;;;;;;;;;;;;;;;7.78;100.00;98644.72;5076991;28;19920;-75
2022/04/25 08:32:50;;;;;;;;;;;;;;;7.83;100.00;98643.00;5092387;28;19922;-75
2022/04/25 08:35:15;;;;;;;;;;;;;;;7.84;100.00;98636.94;5077806;28;20010;-73
2022/04/25 08:37:41;;;;;;;;;;;;;;;7.87;100.00;98637.81;5099441;28;20520;-76
2022/04/25 08:40:07;;;;;;;;;;;;;;;8.09;100.00;98617.09;5075568;28;20491;-73
2022/04/25 08:42:32;;;;;;;;;;;;;;;8.20;100.00;98606.72;5093276;28;20072;-75
2022/04/25 08:45:00;;;;;;;;;;;;;;;8.15;100.00;98608.44;5093125;28;19954;-73
2022/04/25 08:47:29;;;;;;;;;;;;;;;8.26;100.00;98612.00;5092577;28;19966;-76
2022/04/25 08:49:57;;;;;;;;;;;;;;;8.21;100.00;98611.97;5111263;28;20381;-75
2022/04/25 08:52:26;;;;;;;;;;;;;;;8.36;100.00;98605.09;5093366;28;19966;-75
2022/04/25 08:54:53;;;;;;;;;;;;;;;8.50;100.00;98603.53;5093120;28;20352;-72
2022/04/25 08:57:20;;;;;;;;;;;;;;;8.63;100.00;98600.13;5090114;28;19923;-76
2022/04/25 08:59:46;;;;;;;;;;;;;;;8.49;100.00;98620.13;5072762;28;19916;-75
2022/04/25 09:02:12;;;;;;;;;;;;;;;8.61;100.00;98622.84;5072743;28;19963;-75
2022/04/25 09:04:37;;;;;;;;;;;;;;;8.62;100.00;98635.13;5073302;28;20504;-75
2022/04/25 09:07:03;;;;;;;;;;;;;;;8.65;100.00;98643.88;5090236;28;20368;-74
2022/04/25 09:09:28;;;;;;;;;;;;;;;8.66;100.00;98640.38;5088411;28;19920;-76
2022/04/25 09:12:14;;;;;;;;;;;;;;;8.69;100.00;98656.16;5089732;28;19918;-74
2022/04/25 09:14:43;;;;;;;;;;;;;;;8.55;100.00;98670.03;5096293;28;20374;-74
2022/04/25 09:17:08;;;;;;;;;;;;;;;8.73;100.00;98673.66;5109929;28;20340;-74
2022/04/25 09:19:36;;;;;;;;;;;;;;;8.80;100.00;98678.09;5111145;28;20404;-73
2022/04/25 09:22:01;;;;;;;;;;;;;;;8.91;100.00;98688.69;5109879;28;19916;-75
2022/04/25 09:24:29;;;;;;;;;;;;;;;8.75;100.00;98704.31;5093246;28;19934;-75
2022/04/25 09:27:07;;;;;;;;;;;;;;;8.58;100.00;98730.38;5092140;28;19920;-75
2022/04/25 09:29:33;;;;;;;;;;;;;;;8.64;100.00;98732.19;5090945;28;19919;-75
2022/04/25 09:31:59;;;;;;;;;;;;;;;8.79;100.00;98734.06;5091949;28;19916;-76
2022/04/25 09:37:08;;;;;;;;;;;;;;;8.55;100.00;98785.44;5115010;28;20426;-76
2022/04/25 09:39:34;;;;;;;;;;;;;;;8.44;100.00;98808.06;5096137;28;19924;-74
2022/04/25 09:42:00;;;;;;;;;;;;;;;8.38;100.00;98808.81;5095313;28;20386;-74
2022/04/25 09:44:26;;;;;;;;;;;;;;;8.43;100.00;98815.03;5096201;28;20346;-75
2022/04/25 09:46:51;;;;;;;;;;;;;;;8.36;100.00;98828.91;5095823;28;20014;-74
2022/04/25 09:49:22;;;;;;;;;;;;;;;8.37;100.00;98824.53;5095380;28;20010;-74
2022/04/25 09:52:01;;;;;;;;;;;;;;;8.46;100.00;98827.31;5079402;28;20311;-74
2022/04/25 09:54:26;;;;;;;;;;;;;;;8.50;100.00;98823.88;5114216;28;20162;-74
2022/04/25 09:56:51;;;;;;;;;;;;;;;8.61;100.00;98811.75;5094825;28;19961;-75
2022/04/25 09:59:18;;;;;;;;;;;;;;;8.68;100.00;98823.19;5114139;28;19916;-75
2022/04/25 10:01:45;;;;;;;;;;;;;;;8.53;100.00;98844.91;5095768;28;19916;-75
2022/04/25 10:04:31;;;;;;;;;;;;;;;8.49;100.00;98845.72;5095257;28;19915;-74
2022/04/25 10:06:59;;;;;;;;;;;;;;;8.48;100.00;98856.19;5113854;28;19969;-75
2022/04/25 10:09:24;;;;;;;;;;;;;;;8.44;100.00;98853.53;5095793;28;19916;-75
2022/04/25 10:11:53;;;;;;;;;;;;;;;8.42;100.00;98863.09;5092755;28;20051;-75
2022/04/25 10:14:19;;;;;;;;;;;;;;;8.37;100.00;98882.25;5084188;27;19945;-73
2022/04/25 10:16:45;;;;;;;;;;;;;;;8.38;100.00;98889.25;5093365;28;19916;-73
2022/04/25 10:19:10;;;;;;;;;;;;;;;8.44;100.00;98889.38;5102183;28;19920;-74
2022/04/25 10:21:36;;;;;;;;;;;;;;;8.46;100.00;98895.50;5095737;28;20284;-76
2022/04/25 10:24:02;;;;;;;;;;;;;;;8.56;100.00;98897.41;5113463;28;19924;-76
2022/04/25 10:26:28;;;;;;;;;;;;;;;8.68;100.00;98898.41;5096096;28;20325;-76
2022/04/25 10:28:59;;;;;;;;;;;;;;;8.69;100.00;98906.28;5095827;28;20443;-74
2022/04/25 10:31:27;;;;;;;;;;;;;;;8.55;100.00;98921.84;5095299;28;19912;-76
2022/04/25 10:33:54;;;;;;;;;;;;;;;8.41;100.00;98931.25;5095759;28;19924;-74
2022/04/25 10:36:38;;;;;;;;;;;;;;;8.46;100.00;98942.72;5095944;28;19912;-75
2022/04/25 10:39:19;;;;;;;;;;;;;;;8.62;100.00;98933.31;5076972;28;19928;-76
2022/04/25 10:44:38;;;;;;;;;;;;;;;8.78;100.00;98956.28;5113175;28;19951;-74
2022/04/25 10:47:03;;;;;;;;;;;;;;;8.80;100.00;98972.91;5113090;28;20321;-77
2022/04/25 10:49:34;;;;;;;;;;;;;;;8.86;100.00;98982.63;5113784;28;20410;-74
2022/04/25 10:52:00;;;;;;;;;;;;;;;8.94;100.00;98993.22;5094285;28;19930;-74
2022/04/25 10:54:28;;;;;;;;;;;;;;;8.97;100.00;99007.25;5093432;28;19945;-75
2022/04/25 10:57:20;;;;;;;;;;;;;;;8.88;100.00;99030.75;5090874;28;19920;-75
2022/04/25 10:59:45;;;;;;;;;;;;;;;8.73;100.00;99038.41;5106611;28;20022;-74
2022/04/25 11:02:21;;;;;;;;;;;;;;;8.66;100.00;99044.44;5090739;28;20021;-74
2022/04/25 11:04:46;;;;;;;;;;;;;;;8.58;100.00;99053.09;5075059;28;19969;-74
2022/04/25 11:07:18;;;;;;;;;;;;;;;8.53;100.00;99049.50;5083736;28;20314;-76
2022/04/25 11:09:44;;;;;;;;;;;;;;;8.52;100.00;99050.38;5094711;28;19923;-73
2022/04/25 11:12:09;;;;;;;;;;;;;;;8.58;100.00;99054.84;5084024;28;20284;-75
2022/04/25 11:14:34;;;;;;;;;;;;;;;8.52;100.00;99052.97;5081132;28;20498;-76
2022/04/25 11:17:13;;;;;;;;;;;;;;;8.24;100.00;99073.47;5094525;28;20006;-76
2022/04/25 11:19:57;;;;;;;;;;;;;;;8.24;100.00;99076.09;5095093;28;19937;-74
2022/04/25 11:22:38;;;;;;;;;;;;;;;8.30;100.00;99066.56;5094810;28;19992;-75
2022/04/25 11:25:22;;;;;;;;;;;;;;;8.24;100.00;99083.09;5094514;28;19926;-73
2022/04/25 11:28:01;;;;;;;;;;;;;;;8.35;100.00;99080.66;5070327;28;20459;-74
2022/04/25 11:30:26;;;;;;;;;;;;;;;8.37;100.00;99089.44;5050753;28;19923;-75
2022/04/25 11:32:52;;;;;;;;;;;;;;;8.51;100.00;99097.56;5050601;28;19917;-74
2022/04/25 11:35:22;;;;;;;;;;;;;;;8.47;100.00;99112.38;5050610;28;19924;-74
2022/04/25 11:37:48;;;;;;;;;;;;;;;8.76;100.00;99106.69;5050712;28;19967;-74
2022/04/25 11:40:14;;;;;;;;;;;;;;;8.99;100.00;99107.03;5051248;28;19921;-74
2022/04/25 11:42:40;;;;;;;;;;;;;;;9.19;100.00;99115.19;5050368;28;19923;-76
2022/04/25 11:45:05;;;;;;;;;;;;;;;9.27;100.00;99137.19;5051183;28;19920;-76
2022/04/25 11:47:31;;;;;;;;;;;;;;;9.18;100.00;99167.69;5051801;28;20427;-74
2022/04/25 11:50:02;;;;;;;;;;;;;;;9.38;100.00;99181.13;5083123;28;20364;-73
2022/04/25 11:52:27;;;;;;;;;;;;;;;9.36;100.00;99211.75;5050423;28;19925;-75
2022/04/25 11:54:54;;;;;;;;;;;;;;;9.49;100.00;99238.22;5082407;28;20296;-75
2022/04/25 11:57:20;;;;;;;;;;;;;;;9.30;100.00;99271.19;5049846;28;19965;-76
2022/04/25 11:59:46;;;;;;;;;;;;;;;9.55;100.00;99276.81;5066908;28;19916;-74
2022/04/25 12:02:11;;;;;;;;;;;;;;;9.85;100.00;99279.03;5061674;28;19927;-76
2022/04/25 12:04:37;;;;;;;;;;;;;;;9.81;100.00;99321.03;5050592;28;19924;-74
2022/04/25 12:07:03;;;;;;;;;;;;;;;9.72;100.00;99348.03;5066261;28;20026;-74
2022/04/25 12:15:38;;;;;;;;;;;;;;;9.39;100.00;99421.97;5031685;28;20390;-74
2022/04/25 12:18:17;;;;;;;;;;;;;;;9.34;100.00;99421.88;5086191;28;19988;-74
2022/04/25 12:20:44;;;;;;;;;;;;;;;9.14;100.00;99429.38;5071449;28;20453;-74
2022/04/25 12:23:10;;;;;;;;;;;;;;;9.04;100.00;99427.44;5069313;28;19932;-74
2022/04/25 12:25:40;;;;;;;;;;;;;;;9.08;100.00;99421.41;5075685;28;19928;-73
2022/04/25 12:28:18;;;;;;;;;;;;;;;9.05;100.00;99432.72;5093633;28;19916;-74
2022/04/25 12:30:51;;;;;;;;;;;;;;;9.19;100.00;99440.84;5093499;28;20203;-76
2022/04/25 12:33:18;;;;;;;;;;;;;;;9.20;100.00;99465.38;5092805;28;20163;-75
2022/04/25 12:35:44;;;;;;;;;;;;;;;9.29;100.00;99482.22;5093556;28;20008;-75
2022/04/25 12:38:31;;;;;;;;;;;;;;;9.53;100.00;99501.91;5092397;28;20337;-73
2022/04/25 12:40:56;;;;;;;;;;;;;;;9.89;100.00;99550.75;5076750;28;19920;-76
2022/04/25 12:43:42;;;;;;;;;;;;;;;10.15;100.00;99574.88;5073247;28;19920;-73
2022/04/25 12:46:08;;;;;;;;;;;;;;;10.34;100.00;99612.94;5073086;28;19924;-74
2022/04/25 12:48:52;;;;;;;;;;;;;;;10.62;100.00;99639.72;5090343;28;19924;-74
2022/04/25 12:51:27;;;;;;;;;;;;;;;10.71;100.00;99682.00;5111718;28;19916;-75
2022/04/25 12:53:53;;;;;;;;;;;;;;;10.81;100.00;99724.28;5092048;28;19927;-75
2022/04/25 12:56:22;;;;;;;;;;;;;;;10.84;100.00;99740.16;5094151;28;19916;-74
2022/04/25 12:58:48;;;;;;;;;;;;;;;10.82;100.00;99763.81;5093060;28;20543;-74
2022/04/25 13:01:24;;;;;;;;;;;;;;;10.40;100.00;99783.22;5094300;28;19923;-74
2022/04/25 13:04:22;;;;;;;;;;;;;;;10.27;100.00;99786.44;5110897;28;19920;-75
2022/04/25 13:06:47;;;;;;;;;;;;;;;10.11;100.00;99764.19;5036205;28;19920;-75
2022/04/25 13:09:14;;;;;;;;;;;;;;;9.97;100.00;99741.13;5114636;28;20365;-75
2022/04/25 13:11:39;;;;;;;;;;;;;;;9.94;100.00;99717.38;5116249;28;20337;-75
2022/04/25 13:14:06;;;;;;;;;;;;;;;9.73;100.00;99701.19;5096130;28;19920;-75
2022/04/25 13:16:31;;;;;;;;;;;;;;;9.54;100.00;99679.78;5096482;28;20023;-75
2022/04/25 13:18:57;;;;;;;;;;;;;;;9.40;100.00;99665.44;5079547;28;20014;-75